sensor_id;sensor_type;location;lat;lon;timestamp;temperature;humidity
8676;DHT22;4375;52.486;13.424;2022-10-18T00:02:14;16.50;99.90
8676;DHT22;4375;52.486;13.424;2022-10-18T00:04:39;16.60;99.90
8676;DHT22;4375;52.486;13.424;2022-10-18T00:07:05;16.60;99.90
8676;DHT22;4375;52.486;13.424;2022-10-18T00:09:31;16.60;99.90
8676;DHT22;4375;52.486;13.424;2022-10-18T00:11:57;16.60;99.90
8676;DHT22;4375;52.486;13.424;2022-10-18T00:14:22;16.70;99.90
8676;DHT22;4375;52.486;13.424;2022-10-18T00:16:48;16.70;99.90
8676;DHT22;4375;52.486;13.424;2022-10-18T00:19:14;16.70;99.90
8676;DHT22;4375;52.486;13.424;2022-10-18T00:21:40;16.70;99.90
8676;DHT22;4375;52.486;13.424;2022-10-18T00:24:05;16.70;99.90
8676;DHT22;4375;52.486;13.424;2022-10-18T00:26:31;16.70;99.90
8676;DHT22;4375;52.486;13.424;2022-10-18T00:29:02;16.70;99.90
8676;DHT22;4375;52.486;13.424;2022-10-18T00:31:30;16.70;99.90
8676;DHT22;4375;52.486;13.424;2022-10-18T00:34:03;16.60;99.90
8676;DHT22;4375;52.486;13.424;2022-10-18T00:36:30;16.60;99.90
8676;DHT22;4375;52.486;13.424;2022-10-18T00:38:57;16.70;99.90
8676;DHT22;4375;52.486;13.424;2022-10-18T00:41:26;16.70;99.90
8676;DHT22;4375;52.486;13.424;2022-10-18T00:46:17;16.80;99.90
8676;DHT22;4375;52.486;13.424;2022-10-18T00:48:43;16.70;99.90
8676;DHT22;4375;52.486;13.424;2022-10-18T00:51:09;16.70;99.90
8676;DHT22;4375;52.486;13.424;2022-10-18T00:53:35;16.60;99.90
8676;DHT22;4375;52.486;13.424;2022-10-18T00:56:01;16.60;99.90
8676;DHT22;4375;52.486;13.424;2022-10-18T00:58:27;16.60;99.90
8676;DHT22;4375;52.486;13.424;2022-10-18T01:00:52;16.60;99.90
8676;DHT22;4375;52.486;13.424;2022-10-18T01:03:18;16.50;99.90
8676;DHT22;4375;52.486;13.424;2022-10-18T01:05:46;16.50;99.90
8676;DHT22;4375;52.486;13.424;2022-10-18T01:10:53;16.50;99.90
8676;DHT22;4375;52.486;13.424;2022-10-18T01:16:15;16.60;99.90
8676;DHT22;4375;52.486;13.424;2022-10-18T01:19:05;16.60;99.90
8676;DHT22;4375;52.486;13.424;2022-10-18T01:21:54;16.60;99.90
8676;DHT22;4375;52.486;13.424;2022-10-18T01:27:34;16.70;99.90
8676;DHT22;4375;52.486;13.424;2022-10-18T01:30:31;16.70;99.90
8676;DHT22;4375;52.486;13.424;2022-10-18T01:33:50;16.70;99.90
8676;DHT22;4375;52.486;13.424;2022-10-18T01:36:29;16.80;99.90
8676;DHT22;4375;52.486;13.424;2022-10-18T01:38:58;16.80;99.90
8676;DHT22;4375;52.486;13.424;2022-10-18T01:41:27;16.80;99.90
8676;DHT22;4375;52.486;13.424;2022-10-18T01:43:58;16.80;99.90
8676;DHT22;4375;52.486;13.424;2022-10-18T01:46:25;16.80;99.90
8676;DHT22;4375;52.486;13.424;2022-10-18T01:48:54;16.80;99.90
8676;DHT22;4375;52.486;13.424;2022-10-18T01:51:25;16.90;99.90
8676;DHT22;4375;52.486;13.424;2022-10-18T01:53:52;16.90;99.90
8676;DHT22;4375;52.486;13.424;2022-10-18T01:56:37;16.90;99.90
8676;DHT22;4375;52.486;13.424;2022-10-18T02:04:43;16.90;99.90
8676;DHT22;4375;52.486;13.424;2022-10-18T02:10:03;17.00;99.90
8676;DHT22;4375;52.486;13.424;2022-10-18T02:12:28;17.00;99.90
8676;DHT22;4375;52.486;13.424;2022-10-18T02:14:57;17.00;99.90
8676;DHT22;4375;52.486;13.424;2022-10-18T02:17:27;17.00;99.90
8676;DHT22;4375;52.486;13.424;2022-10-18T02:19:54;17.00;99.90
8676;DHT22;4375;52.486;13.424;2022-10-18T02:22:22;17.00;99.90
8676;DHT22;4375;52.486;13.424;2022-10-18T02:24:51;17.00;99.90
8676;DHT22;4375;52.486;13.424;2022-10-18T02:27:18;17.00;99.90
8676;DHT22;4375;52.486;13.424;2022-10-18T02:29:44;17.00;99.90
8676;DHT22;4375;52.486;13.424;2022-10-18T02:34:58;17.10;99.90
8676;DHT22;4375;52.486;13.424;2022-10-18T02:37:29;17.10;99.90
8676;DHT22;4375;52.486;13.424;2022-10-18T02:39:57;17.10;99.90
8676;DHT22;4375;52.486;13.424;2022-10-18T02:42:22;17.10;99.90
8676;DHT22;4375;52.486;13.424;2022-10-18T02:44:48;17.10;99.90
8676;DHT22;4375;52.486;13.424;2022-10-18T02:47:13;17.10;99.90
8676;DHT22;4375;52.486;13.424;2022-10-18T02:49:39;17.10;99.90
8676;DHT22;4375;52.486;13.424;2022-10-18T02:52:05;17.10;99.90
8676;DHT22;4375;52.486;13.424;2022-10-18T02:54:31;17.10;99.90
8676;DHT22;4375;52.486;13.424;2022-10-18T02:56:56;17.10;99.90
8676;DHT22;4375;52.486;13.424;2022-10-18T02:59:22;17.10;99.90
8676;DHT22;4375;52.486;13.424;2022-10-18T03:01:47;17.10;99.90
8676;DHT22;4375;52.486;13.424;2022-10-18T03:04:13;17.10;99.90
8676;DHT22;4375;52.486;13.424;2022-10-18T03:06:39;17.10;99.90
8676;DHT22;4375;52.486;13.424;2022-10-18T03:09:05;17.00;99.90
8676;DHT22;4375;52.486;13.424;2022-10-18T03:11:31;17.10;99.90
8676;DHT22;4375;52.486;13.424;2022-10-18T03:13:57;17.00;99.90
8676;DHT22;4375;52.486;13.424;2022-10-18T03:16:23;17.10;99.90
8676;DHT22;4375;52.486;13.424;2022-10-18T03:18:49;17.10;99.90
8676;DHT22;4375;52.486;13.424;2022-10-18T03:21:14;17.10;99.90
8676;DHT22;4375;52.486;13.424;2022-10-18T03:23:40;17.10;99.90
8676;DHT22;4375;52.486;13.424;2022-10-18T03:26:07;17.10;99.90
8676;DHT22;4375;52.486;13.424;2022-10-18T03:28:32;17.00;99.90
8676;DHT22;4375;52.486;13.424;2022-10-18T03:31:02;17.10;99.90
8676;DHT22;4375;52.486;13.424;2022-10-18T03:33:29;17.10;99.90
8676;DHT22;4375;52.486;13.424;2022-10-18T03:35:55;17.10;99.90
8676;DHT22;4375;52.486;13.424;2022-10-18T03:38:21;17.00;99.90
8676;DHT22;4375;52.486;13.424;2022-10-18T03:40:46;17.00;99.90
8676;DHT22;4375;52.486;13.424;2022-10-18T03:43:12;17.00;99.90
8676;DHT22;4375;52.486;13.424;2022-10-18T03:45:38;16.90;99.90
8676;DHT22;4375;52.486;13.424;2022-10-18T03:48:04;16.90;99.90
8676;DHT22;4375;52.486;13.424;2022-10-18T03:50:30;16.90;99.90
8676;DHT22;4375;52.486;13.424;2022-10-18T03:52:56;16.90;99.90
8676;DHT22;4375;52.486;13.424;2022-10-18T03:55:21;16.90;99.90
8676;DHT22;4375;52.486;13.424;2022-10-18T03:57:47;16.80;99.90
8676;DHT22;4375;52.486;13.424;2022-10-18T04:00:13;16.80;99.90
8676;DHT22;4375;52.486;13.424;2022-10-18T04:02:39;16.80;99.90
8676;DHT22;4375;52.486;13.424;2022-10-18T04:05:04;16.80;99.90
8676;DHT22;4375;52.486;13.424;2022-10-18T04:07:32;16.80;99.90
8676;DHT22;4375;52.486;13.424;2022-10-18T04:09:57;16.80;99.90
8676;DHT22;4375;52.486;13.424;2022-10-18T04:12:23;16.80;99.90
8676;DHT22;4375;52.486;13.424;2022-10-18T04:14:48;16.80;99.90
8676;DHT22;4375;52.486;13.424;2022-10-18T04:17:14;16.70;99.90
8676;DHT22;4375;52.486;13.424;2022-10-18T04:19:40;16.70;99.90
8676;DHT22;4375;52.486;13.424;2022-10-18T04:22:06;16.70;99.90
8676;DHT22;4375;52.486;13.424;2022-10-18T04:24:32;16.70;99.90
8676;DHT22;4375;52.486;13.424;2022-10-18T04:26:57;16.70;99.90
8676;DHT22;4375;52.486;13.424;2022-10-18T04:29:23;16.70;99.90
8676;DHT22;4375;52.486;13.424;2022-10-18T04:31:48;16.60;99.90
8676;DHT22;4375;52.486;13.424;2022-10-18T04:34:14;16.60;99.90
8676;DHT22;4375;52.486;13.424;2022-10-18T04:36:40;16.50;99.90
8676;DHT22;4375;52.486;13.424;2022-10-18T04:39:05;16.50;99.90
8676;DHT22;4375;52.486;13.424;2022-10-18T04:41:31;16.50;99.90
8676;DHT22;4375;52.486;13.424;2022-10-18T04:43:56;16.50;99.90
8676;DHT22;4375;52.486;13.424;2022-10-18T04:46:22;16.50;99.90
8676;DHT22;4375;52.486;13.424;2022-10-18T04:48:48;16.50;99.90
8676;DHT22;4375;52.486;13.424;2022-10-18T04:51:13;16.50;99.90
8676;DHT22;4375;52.486;13.424;2022-10-18T04:53:39;16.40;99.90
8676;DHT22;4375;52.486;13.424;2022-10-18T04:56:05;16.40;99.90
8676;DHT22;4375;52.486;13.424;2022-10-18T04:58:31;16.40;99.90
8676;DHT22;4375;52.486;13.424;2022-10-18T05:00:57;16.40;99.90
8676;DHT22;4375;52.486;13.424;2022-10-18T05:03:22;16.40;99.90
8676;DHT22;4375;52.486;13.424;2022-10-18T05:05:48;16.40;99.90
8676;DHT22;4375;52.486;13.424;2022-10-18T05:08:14;16.50;99.90
8676;DHT22;4375;52.486;13.424;2022-10-18T05:10:39;16.40;99.90
8676;DHT22;4375;52.486;13.424;2022-10-18T05:13:05;16.40;99.90
8676;DHT22;4375;52.486;13.424;2022-10-18T05:15:30;16.40;99.90
8676;DHT22;4375;52.486;13.424;2022-10-18T05:17:56;16.40;99.90
8676;DHT22;4375;52.486;13.424;2022-10-18T05:20:22;16.40;99.90
8676;DHT22;4375;52.486;13.424;2022-10-18T05:22:47;16.40;99.90
8676;DHT22;4375;52.486;13.424;2022-10-18T05:25:13;16.40;99.90
8676;DHT22;4375;52.486;13.424;2022-10-18T05:27:38;16.30;99.90
8676;DHT22;4375;52.486;13.424;2022-10-18T05:30:04;16.30;99.90
8676;DHT22;4375;52.486;13.424;2022-10-18T05:32:30;16.30;99.90
8676;DHT22;4375;52.486;13.424;2022-10-18T05:34:55;16.30;99.90
8676;DHT22;4375;52.486;13.424;2022-10-18T05:37:21;16.30;99.90
8676;DHT22;4375;52.486;13.424;2022-10-18T05:39:47;16.30;99.90
8676;DHT22;4375;52.486;13.424;2022-10-18T05:42:12;16.30;99.90
8676;DHT22;4375;52.486;13.424;2022-10-18T05:44:38;16.30;99.90
8676;DHT22;4375;52.486;13.424;2022-10-18T05:47:03;16.30;99.90
8676;DHT22;4375;52.486;13.424;2022-10-18T05:49:29;16.30;99.90
8676;DHT22;4375;52.486;13.424;2022-10-18T05:51:54;16.30;99.90
8676;DHT22;4375;52.486;13.424;2022-10-18T05:54:20;16.20;99.90
8676;DHT22;4375;52.486;13.424;2022-10-18T05:56:46;16.20;99.90
8676;DHT22;4375;52.486;13.424;2022-10-18T05:59:12;16.20;99.90
8676;DHT22;4375;52.486;13.424;2022-10-18T06:01:39;16.20;99.90
8676;DHT22;4375;52.486;13.424;2022-10-18T06:04:05;16.10;99.90
8676;DHT22;4375;52.486;13.424;2022-10-18T06:06:32;16.10;99.90
8676;DHT22;4375;52.486;13.424;2022-10-18T06:08:58;16.10;99.90
8676;DHT22;4375;52.486;13.424;2022-10-18T06:11:25;16.00;99.90
8676;DHT22;4375;52.486;13.424;2022-10-18T06:13:51;16.00;99.90
8676;DHT22;4375;52.486;13.424;2022-10-18T06:16:19;16.00;99.90
8676;DHT22;4375;52.486;13.424;2022-10-18T06:19:03;16.00;99.90
8676;DHT22;4375;52.486;13.424;2022-10-18T06:21:29;16.10;99.90
8676;DHT22;4375;52.486;13.424;2022-10-18T06:23:57;16.00;99.90
8676;DHT22;4375;52.486;13.424;2022-10-18T06:26:23;16.00;99.90
8676;DHT22;4375;52.486;13.424;2022-10-18T06:28:49;16.00;99.90
8676;DHT22;4375;52.486;13.424;2022-10-18T06:31:15;15.90;99.90
8676;DHT22;4375;52.486;13.424;2022-10-18T06:33:41;16.00;99.90
8676;DHT22;4375;52.486;13.424;2022-10-18T06:36:15;16.00;99.90
8676;DHT22;4375;52.486;13.424;2022-10-18T06:38:41;16.00;99.90
8676;DHT22;4375;52.486;13.424;2022-10-18T06:41:07;16.00;99.90
8676;DHT22;4375;52.486;13.424;2022-10-18T06:43:34;15.80;99.90
8676;DHT22;4375;52.486;13.424;2022-10-18T06:46:01;15.80;99.90
8676;DHT22;4375;52.486;13.424;2022-10-18T06:48:29;15.90;99.90
8676;DHT22;4375;52.486;13.424;2022-10-18T06:50:58;15.90;99.90
8676;DHT22;4375;52.486;13.424;2022-10-18T06:53:25;16.00;99.90
8676;DHT22;4375;52.486;13.424;2022-10-18T06:55:52;16.00;99.90
8676;DHT22;4375;52.486;13.424;2022-10-18T06:58:26;16.10;99.90
8676;DHT22;4375;52.486;13.424;2022-10-18T07:00:52;16.10;99.90
8676;DHT22;4375;52.486;13.424;2022-10-18T07:03:18;16.20;99.90
8676;DHT22;4375;52.486;13.424;2022-10-18T07:05:46;16.20;99.90
8676;DHT22;4375;52.486;13.424;2022-10-18T07:08:12;16.20;99.90
8676;DHT22;4375;52.486;13.424;2022-10-18T07:10:38;16.20;99.90
8676;DHT22;4375;52.486;13.424;2022-10-18T07:13:03;16.10;99.90
8676;DHT22;4375;52.486;13.424;2022-10-18T07:15:29;16.10;99.90
8676;DHT22;4375;52.486;13.424;2022-10-18T07:17:54;16.10;99.90
8676;DHT22;4375;52.486;13.424;2022-10-18T07:20:20;16.20;99.90
8676;DHT22;4375;52.486;13.424;2022-10-18T07:22:46;16.20;99.90
8676;DHT22;4375;52.486;13.424;2022-10-18T07:25:11;16.20;99.90
8676;DHT22;4375;52.486;13.424;2022-10-18T07:27:39;16.30;99.90
8676;DHT22;4375;52.486;13.424;2022-10-18T07:30:06;16.30;99.90
8676;DHT22;4375;52.486;13.424;2022-10-18T07:32:32;16.40;99.90
8676;DHT22;4375;52.486;13.424;2022-10-18T07:34:58;16.40;99.90
8676;DHT22;4375;52.486;13.424;2022-10-18T07:37:24;16.40;99.90
8676;DHT22;4375;52.486;13.424;2022-10-18T07:39:49;16.40;99.90
8676;DHT22;4375;52.486;13.424;2022-10-18T07:42:15;16.50;99.90
8676;DHT22;4375;52.486;13.424;2022-10-18T07:44:41;16.50;99.90
8676;DHT22;4375;52.486;13.424;2022-10-18T07:47:06;16.50;99.90
8676;DHT22;4375;52.486;13.424;2022-10-18T07:49:32;16.40;99.90
8676;DHT22;4375;52.486;13.424;2022-10-18T07:51:57;16.50;99.90
8676;DHT22;4375;52.486;13.424;2022-10-18T07:54:23;16.50;99.90
8676;DHT22;4375;52.486;13.424;2022-10-18T07:56:49;16.50;99.90
8676;DHT22;4375;52.486;13.424;2022-10-18T07:59:14;16.50;99.90
8676;DHT22;4375;52.486;13.424;2022-10-18T08:01:40;16.50;99.90
8676;DHT22;4375;52.486;13.424;2022-10-18T08:04:05;16.50;99.90
8676;DHT22;4375;52.486;13.424;2022-10-18T08:06:31;16.50;99.90
8676;DHT22;4375;52.486;13.424;2022-10-18T08:08:57;16.50;99.90
8676;DHT22;4375;52.486;13.424;2022-10-18T08:11:23;16.50;99.90
8676;DHT22;4375;52.486;13.424;2022-10-18T08:13:50;16.40;99.90
8676;DHT22;4375;52.486;13.424;2022-10-18T08:16:22;16.40;99.90
8676;DHT22;4375;52.486;13.424;2022-10-18T08:18:48;16.40;99.90
8676;DHT22;4375;52.486;13.424;2022-10-18T08:21:14;16.40;99.90
8676;DHT22;4375;52.486;13.424;2022-10-18T08:23:43;16.30;99.90
8676;DHT22;4375;52.486;13.424;2022-10-18T08:26:15;16.30;99.90
8676;DHT22;4375;52.486;13.424;2022-10-18T08:28:55;16.30;99.90
8676;DHT22;4375;52.486;13.424;2022-10-18T08:31:23;16.30;99.90
8676;DHT22;4375;52.486;13.424;2022-10-18T08:33:54;16.30;99.90
8676;DHT22;4375;52.486;13.424;2022-10-18T08:36:21;16.20;99.90
8676;DHT22;4375;52.486;13.424;2022-10-18T08:38:46;16.30;99.90
8676;DHT22;4375;52.486;13.424;2022-10-18T08:41:20;16.30;99.90
8676;DHT22;4375;52.486;13.424;2022-10-18T08:44:19;16.30;99.90
8676;DHT22;4375;52.486;13.424;2022-10-18T08:46:57;16.30;99.90
8676;DHT22;4375;52.486;13.424;2022-10-18T08:52:01;16.20;99.90
8676;DHT22;4375;52.486;13.424;2022-10-18T08:54:35;16.10;99.90
8676;DHT22;4375;52.486;13.424;2022-10-18T08:57:08;16.10;99.90
8676;DHT22;4375;52.486;13.424;2022-10-18T08:59:41;16.10;99.90
8676;DHT22;4375;52.486;13.424;2022-10-18T09:02:38;16.00;99.90
8676;DHT22;4375;52.486;13.424;2022-10-18T09:05:43;16.10;99.90
8676;DHT22;4375;52.486;13.424;2022-10-18T09:36:07;16.00;99.90
8676;DHT22;4375;52.486;13.424;2022-10-18T09:38:50;16.00;99.90
8676;DHT22;4375;52.486;13.424;2022-10-18T09:41:53;16.00;99.90
8676;DHT22;4375;52.486;13.424;2022-10-18T09:44:34;16.00;99.90
8676;DHT22;4375;52.486;13.424;2022-10-18T09:47:15;15.90;99.90
8676;DHT22;4375;52.486;13.424;2022-10-18T09:59:53;15.90;99.90
8676;DHT22;4375;52.486;13.424;2022-10-18T10:02:41;16.00;99.90
8676;DHT22;4375;52.486;13.424;2022-10-18T10:05:21;16.10;99.90
8676;DHT22;4375;52.486;13.424;2022-10-18T10:07:59;16.10;99.90
8676;DHT22;4375;52.486;13.424;2022-10-18T10:10:47;16.10;99.90
8676;DHT22;4375;52.486;13.424;2022-10-18T10:13:24;16.10;99.90
8676;DHT22;4375;52.486;13.424;2022-10-18T10:16:25;16.10;99.90
8676;DHT22;4375;52.486;13.424;2022-10-18T10:19:07;16.10;99.90
8676;DHT22;4375;52.486;13.424;2022-10-18T10:22:10;16.10;99.90
8676;DHT22;4375;52.486;13.424;2022-10-18T10:24:47;16.10;99.90
8676;DHT22;4375;52.486;13.424;2022-10-18T10:27:29;16.10;99.90
8676;DHT22;4375;52.486;13.424;2022-10-18T10:29:58;16.10;99.90
8676;DHT22;4375;52.486;13.424;2022-10-18T10:32:29;16.10;99.90
8676;DHT22;4375;52.486;13.424;2022-10-18T10:34:55;16.10;99.90
8676;DHT22;4375;52.486;13.424;2022-10-18T10:37:51;16.00;99.90
8676;DHT22;4375;52.486;13.424;2022-10-18T10:40:27;16.10;99.90
8676;DHT22;4375;52.486;13.424;2022-10-18T10:46:33;16.00;99.90
8676;DHT22;4375;52.486;13.424;2022-10-18T10:52:52;15.90;99.90
8676;DHT22;4375;52.486;13.424;2022-10-18T11:14:58;16.20;99.90
8676;DHT22;4375;52.486;13.424;2022-10-18T11:21:12;16.20;99.90
8676;DHT22;4375;52.486;13.424;2022-10-18T11:23:18;16.20;99.90
8676;DHT22;4375;52.486;13.424;2022-10-18T11:26:07;16.20;99.90
8676;DHT22;4375;52.486;13.424;2022-10-18T11:38:08;16.20;99.90
8676;DHT22;4375;52.486;13.424;2022-10-18T11:41:13;16.30;99.90
8676;DHT22;4375;52.486;13.424;2022-10-18T11:44:19;16.30;99.90
8676;DHT22;4375;52.486;13.424;2022-10-18T12:04:20;16.40;99.90
8676;DHT22;4375;52.486;13.424;2022-10-18T12:07:11;16.40;99.90
8676;DHT22;4375;52.486;13.424;2022-10-18T12:09:46;16.30;99.90
8676;DHT22;4375;52.486;13.424;2022-10-18T12:12:30;16.40;99.90
8676;DHT22;4375;52.486;13.424;2022-10-18T12:15:12;16.40;99.90
8676;DHT22;4375;52.486;13.424;2022-10-18T12:17:44;16.50;99.90
8676;DHT22;4375;52.486;13.424;2022-10-18T12:20:53;16.50;99.90
8676;DHT22;4375;52.486;13.424;2022-10-18T12:23:53;16.60;99.90
8676;DHT22;4375;52.486;13.424;2022-10-18T12:26:20;16.60;99.90
8676;DHT22;4375;52.486;13.424;2022-10-18T12:31:45;16.60;99.90
8676;DHT22;4375;52.486;13.424;2022-10-18T12:39:55;16.70;99.90
8676;DHT22;4375;52.486;13.424;2022-10-18T12:42:25;16.70;99.90
8676;DHT22;4375;52.486;13.424;2022-10-18T12:45:04;16.70;99.90
8676;DHT22;4375;52.486;13.424;2022-10-18T12:47:30;16.80;99.90
8676;DHT22;4375;52.486;13.424;2022-10-18T12:50:02;16.70;99.90
8676;DHT22;4375;52.486;13.424;2022-10-18T12:52:30;16.70;99.90
8676;DHT22;4375;52.486;13.424;2022-10-18T12:55:03;16.70;99.90
8676;DHT22;4375;52.486;13.424;2022-10-18T13:18:54;17.00;99.90
8676;DHT22;4375;52.486;13.424;2022-10-18T13:21:42;17.00;99.90
8676;DHT22;4375;52.486;13.424;2022-10-18T13:32:31;16.90;99.90
8676;DHT22;4375;52.486;13.424;2022-10-18T13:34:59;16.90;99.90
8676;DHT22;4375;52.486;13.424;2022-10-18T13:37:25;17.00;99.90
8676;DHT22;4375;52.486;13.424;2022-10-18T13:40:14;16.90;99.90
8676;DHT22;4375;52.486;13.424;2022-10-18T13:42:45;17.00;99.90
8676;DHT22;4375;52.486;13.424;2022-10-18T13:47:56;17.10;99.90
8676;DHT22;4375;52.486;13.424;2022-10-18T13:50:29;17.10;99.90
8676;DHT22;4375;52.486;13.424;2022-10-18T13:53:06;17.10;99.90
8676;DHT22;4375;52.486;13.424;2022-10-18T13:58:45;17.10;99.90
8676;DHT22;4375;52.486;13.424;2022-10-18T14:06:46;17.20;99.90
8676;DHT22;4375;52.486;13.424;2022-10-18T14:09:16;17.10;99.90
8676;DHT22;4375;52.486;13.424;2022-10-18T14:11:48;17.00;99.90
8676;DHT22;4375;52.486;13.424;2022-10-18T14:14:31;16.80;99.90
8676;DHT22;4375;52.486;13.424;2022-10-18T14:24:32;17.00;99.90
8676;DHT22;4375;52.486;13.424;2022-10-18T14:29:41;17.00;99.90
8676;DHT22;4375;52.486;13.424;2022-10-18T14:32:24;17.10;99.90
8676;DHT22;4375;52.486;13.424;2022-10-18T14:34:50;17.00;99.90
8676;DHT22;4375;52.486;13.424;2022-10-18T14:37:34;17.00;99.90
8676;DHT22;4375;52.486;13.424;2022-10-18T14:40:02;16.90;99.90
8676;DHT22;4375;52.486;13.424;2022-10-18T14:42:28;16.80;99.90
8676;DHT22;4375;52.486;13.424;2022-10-18T14:44:54;16.80;99.90
8676;DHT22;4375;52.486;13.424;2022-10-18T14:47:22;16.70;99.90
8676;DHT22;4375;52.486;13.424;2022-10-18T14:49:49;16.70;99.90
8676;DHT22;4375;52.486;13.424;2022-10-18T14:52:22;16.70;99.90
8676;DHT22;4375;52.486;13.424;2022-10-18T14:54:50;16.70;99.90
8676;DHT22;4375;52.486;13.424;2022-10-18T14:57:22;16.80;99.90
8676;DHT22;4375;52.486;13.424;2022-10-18T14:59:55;16.70;99.90
8676;DHT22;4375;52.486;13.424;2022-10-18T15:02:31;16.70;99.90
8676;DHT22;4375;52.486;13.424;2022-10-18T15:05:07;16.60;99.90
8676;DHT22;4375;52.486;13.424;2022-10-18T15:07:33;16.70;99.90
8676;DHT22;4375;52.486;13.424;2022-10-18T15:10:00;16.70;99.90
8676;DHT22;4375;52.486;13.424;2022-10-18T15:12:29;16.80;99.90
8676;DHT22;4375;52.486;13.424;2022-10-18T15:14:57;16.80;99.90
8676;DHT22;4375;52.486;13.424;2022-10-18T15:17:29;16.80;99.90
8676;DHT22;4375;52.486;13.424;2022-10-18T15:22:23;16.80;99.90
8676;DHT22;4375;52.486;13.424;2022-10-18T15:27:31;16.70;99.90
8676;DHT22;4375;52.486;13.424;2022-10-18T15:30:12;16.60;99.90
8676;DHT22;4375;52.486;13.424;2022-10-18T15:32:50;16.50;99.90
8676;DHT22;4375;52.486;13.424;2022-10-18T15:35:28;16.40;99.90
8676;DHT22;4375;52.486;13.424;2022-10-18T15:37:57;16.30;99.90
8676;DHT22;4375;52.486;13.424;2022-10-18T15:42:54;16.10;99.90
8676;DHT22;4375;52.486;13.424;2022-10-18T15:56:02;15.80;99.90
8676;DHT22;4375;52.486;13.424;2022-10-18T15:58:43;15.70;99.90
8676;DHT22;4375;52.486;13.424;2022-10-18T16:01:40;15.60;99.90
8676;DHT22;4375;52.486;13.424;2022-10-18T16:06:38;15.50;99.90
8676;DHT22;4375;52.486;13.424;2022-10-18T16:09:04;15.40;99.90
8676;DHT22;4375;52.486;13.424;2022-10-18T16:11:30;15.40;99.90
8676;DHT22;4375;52.486;13.424;2022-10-18T16:13:55;15.30;99.90
8676;DHT22;4375;52.486;13.424;2022-10-18T16:16:23;15.20;99.90
8676;DHT22;4375;52.486;13.424;2022-10-18T16:18:50;15.10;99.90
8676;DHT22;4375;52.486;13.424;2022-10-18T16:23:43;15.00;99.90
8676;DHT22;4375;52.486;13.424;2022-10-18T16:26:10;15.00;99.90
8676;DHT22;4375;52.486;13.424;2022-10-18T16:28:37;14.90;99.90
8676;DHT22;4375;52.486;13.424;2022-10-18T16:31:03;14.90;99.90
8676;DHT22;4375;52.486;13.424;2022-10-18T16:33:29;14.90;99.90
8676;DHT22;4375;52.486;13.424;2022-10-18T16:35:55;14.90;99.90
8676;DHT22;4375;52.486;13.424;2022-10-18T16:38:28;14.80;99.90
8676;DHT22;4375;52.486;13.424;2022-10-18T16:40:55;14.80;99.90
8676;DHT22;4375;52.486;13.424;2022-10-18T16:43:21;14.70;99.90
8676;DHT22;4375;52.486;13.424;2022-10-18T16:45:47;14.60;99.90
8676;DHT22;4375;52.486;13.424;2022-10-18T16:48:17;14.60;99.90
8676;DHT22;4375;52.486;13.424;2022-10-18T16:50:44;14.70;99.90
8676;DHT22;4375;52.486;13.424;2022-10-18T16:53:10;14.60;99.90
8676;DHT22;4375;52.486;13.424;2022-10-18T16:55:37;14.60;99.90
8676;DHT22;4375;52.486;13.424;2022-10-18T16:58:04;14.60;99.90
8676;DHT22;4375;52.486;13.424;2022-10-18T17:00:30;14.60;99.90
8676;DHT22;4375;52.486;13.424;2022-10-18T17:02:56;14.50;99.90
8676;DHT22;4375;52.486;13.424;2022-10-18T17:05:21;14.50;99.90
8676;DHT22;4375;52.486;13.424;2022-10-18T17:07:48;14.50;99.90
8676;DHT22;4375;52.486;13.424;2022-10-18T17:10:16;14.50;99.90
8676;DHT22;4375;52.486;13.424;2022-10-18T17:12:42;14.40;99.90
8676;DHT22;4375;52.486;13.424;2022-10-18T17:15:09;14.30;99.90
8676;DHT22;4375;52.486;13.424;2022-10-18T17:17:35;14.30;99.90
8676;DHT22;4375;52.486;13.424;2022-10-18T17:20:02;14.30;99.90
8676;DHT22;4375;52.486;13.424;2022-10-18T17:22:28;14.30;99.90
8676;DHT22;4375;52.486;13.424;2022-10-18T17:24:53;14.20;99.90
8676;DHT22;4375;52.486;13.424;2022-10-18T17:27:19;14.10;99.90
8676;DHT22;4375;52.486;13.424;2022-10-18T17:29:45;14.10;99.90
8676;DHT22;4375;52.486;13.424;2022-10-18T17:32:10;14.00;99.90
8676;DHT22;4375;52.486;13.424;2022-10-18T17:34:36;14.00;99.90
8676;DHT22;4375;52.486;13.424;2022-10-18T17:37:02;14.00;99.90
8676;DHT22;4375;52.486;13.424;2022-10-18T17:39:28;14.00;99.90
8676;DHT22;4375;52.486;13.424;2022-10-18T17:41:54;14.00;99.90
8676;DHT22;4375;52.486;13.424;2022-10-18T17:44:21;13.90;99.90
8676;DHT22;4375;52.486;13.424;2022-10-18T17:46:47;13.80;99.90
8676;DHT22;4375;52.486;13.424;2022-10-18T17:49:12;13.80;99.90
8676;DHT22;4375;52.486;13.424;2022-10-18T17:51:40;13.80;99.90
8676;DHT22;4375;52.486;13.424;2022-10-18T17:54:07;13.80;99.90
8676;DHT22;4375;52.486;13.424;2022-10-18T17:56:33;13.70;99.90
8676;DHT22;4375;52.486;13.424;2022-10-18T17:58:59;13.70;99.90
8676;DHT22;4375;52.486;13.424;2022-10-18T18:01:25;13.70;99.90
8676;DHT22;4375;52.486;13.424;2022-10-18T18:04:00;13.70;99.90
8676;DHT22;4375;52.486;13.424;2022-10-18T18:06:29;13.70;99.90
8676;DHT22;4375;52.486;13.424;2022-10-18T18:16:52;13.60;99.90
8676;DHT22;4375;52.486;13.424;2022-10-18T18:19:30;13.50;99.90
8676;DHT22;4375;52.486;13.424;2022-10-18T18:22:03;13.50;99.90
8676;DHT22;4375;52.486;13.424;2022-10-18T18:24:37;13.50;99.90
8676;DHT22;4375;52.486;13.424;2022-10-18T18:27:18;13.40;99.90
8676;DHT22;4375;52.486;13.424;2022-10-18T18:30:11;13.40;99.90
8676;DHT22;4375;52.486;13.424;2022-10-18T18:33:00;13.40;99.90
8676;DHT22;4375;52.486;13.424;2022-10-18T18:36:06;13.50;99.90
8676;DHT22;4375;52.486;13.424;2022-10-18T18:57:06;13.40;99.90
8676;DHT22;4375;52.486;13.424;2022-10-18T19:03:08;13.40;99.90
8676;DHT22;4375;52.486;13.424;2022-10-18T19:09:16;13.40;99.90
8676;DHT22;4375;52.486;13.424;2022-10-18T19:11:53;13.40;99.90
8676;DHT22;4375;52.486;13.424;2022-10-18T19:14:25;13.40;99.90
8676;DHT22;4375;52.486;13.424;2022-10-18T19:16:56;13.30;99.90
8676;DHT22;4375;52.486;13.424;2022-10-18T19:19:25;13.20;99.90
8676;DHT22;4375;52.486;13.424;2022-10-18T19:21:55;13.20;99.90
8676;DHT22;4375;52.486;13.424;2022-10-18T19:24:29;13.20;99.90
8676;DHT22;4375;52.486;13.424;2022-10-18T19:27:05;13.20;99.90
8676;DHT22;4375;52.486;13.424;2022-10-18T19:29:35;13.20;99.90
8676;DHT22;4375;52.486;13.424;2022-10-18T19:32:04;13.20;99.90
8676;DHT22;4375;52.486;13.424;2022-10-18T19:34:36;13.20;99.90
8676;DHT22;4375;52.486;13.424;2022-10-18T19:37:04;13.10;99.90
8676;DHT22;4375;52.486;13.424;2022-10-18T19:39:33;13.10;99.90
8676;DHT22;4375;52.486;13.424;2022-10-18T19:42:08;13.10;99.90
8676;DHT22;4375;52.486;13.424;2022-10-18T19:47:33;13.10;99.90
8676;DHT22;4375;52.486;13.424;2022-10-18T19:49:59;13.00;99.90
8676;DHT22;4375;52.486;13.424;2022-10-18T19:52:24;13.00;99.90
8676;DHT22;4375;52.486;13.424;2022-10-18T19:54:52;13.00;99.90
8676;DHT22;4375;52.486;13.424;2022-10-18T19:57:25;13.00;99.90
8676;DHT22;4375;52.486;13.424;2022-10-18T20:00:02;13.00;99.90
8676;DHT22;4375;52.486;13.424;2022-10-18T20:02:28;12.90;99.90
8676;DHT22;4375;52.486;13.424;2022-10-18T20:04:54;12.90;99.90